sensor_id;sensor_type;location;lat;lon;timestamp;pressure;altitude;pressure_sealevel;temperature;humidity
71465;BME280;59274;49.874;9.154;2022-10-15T00:01:42;99625.53;;;13.58;100.00
71465;BME280;59274;49.874;9.154;2022-10-15T00:04:08;99618.56;;;13.53;100.00
71465;BME280;59274;49.874;9.154;2022-10-15T00:06:34;99611.06;;;13.61;100.00
71465;BME280;59274;49.874;9.154;2022-10-15T00:08:59;99603.66;;;13.61;100.00
71465;BME280;59274;49.874;9.154;2022-10-15T00:11:27;99605.66;;;13.57;100.00
71465;BME280;59274;49.874;9.154;2022-10-15T00:13:54;99616.22;;;13.55;100.00
71465;BME280;59274;49.874;9.154;2022-10-15T00:16:24;99605.22;;;13.62;100.00
71465;BME280;59274;49.874;9.154;2022-10-15T00:18:50;99602.56;;;13.55;100.00
71465;BME280;59274;49.874;9.154;2022-10-15T00:21:18;99606.84;;;13.56;100.00
71465;BME280;59274;49.874;9.154;2022-10-15T00:23:45;99610.34;;;13.57;100.00
71465;BME280;59274;49.874;9.154;2022-10-15T00:26:14;99611.09;;;13.57;100.00
71465;BME280;59274;49.874;9.154;2022-10-15T00:28:40;99609.59;;;13.53;100.00
71465;BME280;59274;49.874;9.154;2022-10-15T00:31:08;99607.66;;;13.53;100.00
71465;BME280;59274;49.874;9.154;2022-10-15T00:33:34;99615.44;;;13.55;100.00
71465;BME280;59274;49.874;9.154;2022-10-15T00:36:06;99614.97;;;13.60;100.00
71465;BME280;59274;49.874;9.154;2022-10-15T00:38:32;99611.16;;;13.54;100.00
71465;BME280;59274;49.874;9.154;2022-10-15T00:40:58;99612.00;;;13.47;100.00
71465;BME280;59274;49.874;9.154;2022-10-15T00:49:02;99612.72;;;13.55;100.00
71465;BME280;59274;49.874;9.154;2022-10-15T00:51:34;99601.75;;;13.58;100.00
71465;BME280;59274;49.874;9.154;2022-10-15T00:54:01;99604.84;;;13.60;100.00
71465;BME280;59274;49.874;9.154;2022-10-15T00:56:29;99600.28;;;13.50;100.00
71465;BME280;59274;49.874;9.154;2022-10-15T00:58:56;99598.78;;;13.46;100.00
71465;BME280;59274;49.874;9.154;2022-10-15T01:01:22;99593.94;;;13.60;100.00
71465;BME280;59274;49.874;9.154;2022-10-15T01:03:50;99591.25;;;13.57;100.00
71465;BME280;59274;49.874;9.154;2022-10-15T01:06:15;99593.28;;;13.49;100.00
71465;BME280;59274;49.874;9.154;2022-10-15T01:08:41;99589.25;;;13.61;100.00
71465;BME280;59274;49.874;9.154;2022-10-15T01:16:57;99579.97;;;13.55;100.00
71465;BME280;59274;49.874;9.154;2022-10-15T01:19:36;99582.22;;;13.63;100.00
71465;BME280;59274;49.874;9.154;2022-10-15T01:22:21;99567.03;;;13.59;100.00
71465;BME280;59274;49.874;9.154;2022-10-15T01:28:08;99579.13;;;13.58;100.00
71465;BME280;59274;49.874;9.154;2022-10-15T01:30:44;99575.28;;;13.55;100.00
71465;BME280;59274;49.874;9.154;2022-10-15T01:33:27;99574.81;;;13.60;100.00
71465;BME280;59274;49.874;9.154;2022-10-15T01:38:37;99564.28;;;13.62;100.00
71465;BME280;59274;49.874;9.154;2022-10-15T01:41:17;99561.66;;;13.55;100.00
71465;BME280;59274;49.874;9.154;2022-10-15T01:43:47;99555.09;;;13.49;100.00
71465;BME280;59274;49.874;9.154;2022-10-15T01:46:23;99558.16;;;13.51;100.00
71465;BME280;59274;49.874;9.154;2022-10-15T01:48:53;99564.81;;;13.50;100.00
71465;BME280;59274;49.874;9.154;2022-10-15T01:51:23;99560.88;;;13.55;100.00
71465;BME280;59274;49.874;9.154;2022-10-15T01:53:49;99562.44;;;13.52;100.00
71465;BME280;59274;49.874;9.154;2022-10-15T01:56:20;99560.09;;;13.54;100.00
71465;BME280;59274;49.874;9.154;2022-10-15T01:58:49;99556.59;;;13.54;100.00
71465;BME280;59274;49.874;9.154;2022-10-15T02:01:16;99556.59;;;13.54;100.00
71465;BME280;59274;49.874;9.154;2022-10-15T02:03:46;99555.88;;;13.50;100.00
71465;BME280;59274;49.874;9.154;2022-10-15T02:06:36;99551.13;;;13.54;100.00
71465;BME280;59274;49.874;9.154;2022-10-15T02:17:10;99550.34;;;13.53;100.00
71465;BME280;59274;49.874;9.154;2022-10-15T02:22:29;99547.22;;;13.55;100.00
71465;BME280;59274;49.874;9.154;2022-10-15T02:27:32;99549.97;;;13.55;100.00
71465;BME280;59274;49.874;9.154;2022-10-15T02:30:01;99538.72;;;13.49;100.00
71465;BME280;59274;49.874;9.154;2022-10-15T02:32:28;99545.31;;;13.52;100.00
71465;BME280;59274;49.874;9.154;2022-10-15T02:34:55;99544.09;;;13.56;100.00
71465;BME280;59274;49.874;9.154;2022-10-15T02:37:24;99542.09;;;13.60;100.00
71465;BME280;59274;49.874;9.154;2022-10-15T02:39:50;99544.00;;;13.63;100.00
71465;BME280;59274;49.874;9.154;2022-10-15T02:42:16;99547.91;;;13.62;100.00
71465;BME280;59274;49.874;9.154;2022-10-15T02:44:42;99551.81;;;13.61;100.00
71465;BME280;59274;49.874;9.154;2022-10-15T02:47:07;99555.31;;;13.62;100.00
71465;BME280;59274;49.874;9.154;2022-10-15T02:49:34;99559.59;;;13.63;100.00
71465;BME280;59274;49.874;9.154;2022-10-15T02:51:59;99558.00;;;13.65;100.00
71465;BME280;59274;49.874;9.154;2022-10-15T02:54:24;99544.09;;;13.56;100.00
71465;BME280;59274;49.874;9.154;2022-10-15T02:56:50;99548.72;;;13.59;100.00
71465;BME280;59274;49.874;9.154;2022-10-15T02:59:15;99550.25;;;13.64;100.00
71465;BME280;59274;49.874;9.154;2022-10-15T03:01:42;99551.44;;;13.59;100.00
71465;BME280;59274;49.874;9.154;2022-10-15T03:04:08;99553.78;;;13.61;100.00
71465;BME280;59274;49.874;9.154;2022-10-15T03:06:33;99555.78;;;13.57;100.00
71465;BME280;59274;49.874;9.154;2022-10-15T03:08:58;99547.16;;;13.58;100.00
71465;BME280;59274;49.874;9.154;2022-10-15T03:11:24;99548.00;;;13.55;100.00
71465;BME280;59274;49.874;9.154;2022-10-15T03:13:49;99549.50;;;13.60;100.00
71465;BME280;59274;49.874;9.154;2022-10-15T03:16:15;99551.44;;;13.59;100.00
71465;BME280;59274;49.874;9.154;2022-10-15T03:18:40;99558.81;;;13.62;100.00
71465;BME280;59274;49.874;9.154;2022-10-15T03:21:06;99557.28;;;13.61;100.00
71465;BME280;59274;49.874;9.154;2022-10-15T03:23:31;99557.66;;;13.63;100.00
71465;BME280;59274;49.874;9.154;2022-10-15T03:25:56;99552.13;;;13.67;100.00
71465;BME280;59274;49.874;9.154;2022-10-15T03:28:22;99558.69;;;13.73;100.00
71465;BME280;59274;49.874;9.154;2022-10-15T03:30:47;99562.28;;;13.66;100.00
71465;BME280;59274;49.874;9.154;2022-10-15T03:33:13;99567.31;;;13.68;100.00
71465;BME280;59274;49.874;9.154;2022-10-15T03:35:39;99560.28;;;13.70;100.00
71465;BME280;59274;49.874;9.154;2022-10-15T03:38:05;99560.63;;;13.72;100.00
71465;BME280;59274;49.874;9.154;2022-10-15T03:40:31;99560.72;;;13.65;100.00
71465;BME280;59274;49.874;9.154;2022-10-15T03:42:56;99562.69;;;13.65;100.00
71465;BME280;59274;49.874;9.154;2022-10-15T03:45:23;99558.66;;;13.77;100.00
71465;BME280;59274;49.874;9.154;2022-10-15T03:47:48;99556.03;;;13.66;100.00
71465;BME280;59274;49.874;9.154;2022-10-15T03:50:14;99562.19;;;13.73;100.00
71465;BME280;59274;49.874;9.154;2022-10-15T03:52:40;99562.19;;;13.73;100.00
71465;BME280;59274;49.874;9.154;2022-10-15T03:55:06;99564.44;;;13.79;100.00
71465;BME280;59274;49.874;9.154;2022-10-15T03:57:31;99568.47;;;13.70;100.00
71465;BME280;59274;49.874;9.154;2022-10-15T03:59:57;99575.38;;;13.79;100.00
71465;BME280;59274;49.874;9.154;2022-10-15T04:02:23;99575.28;;;13.86;100.00
71465;BME280;59274;49.874;9.154;2022-10-15T04:04:51;99564.31;;;13.89;100.00
71465;BME280;59274;49.874;9.154;2022-10-15T04:07:18;99569.00;;;13.89;100.00
71465;BME280;59274;49.874;9.154;2022-10-15T04:09:43;99573.28;;;13.90;100.00
71465;BME280;59274;49.874;9.154;2022-10-15T04:12:09;99572.09;;;13.91;100.00
71465;BME280;59274;49.874;9.154;2022-10-15T04:14:34;99570.94;;;13.92;100.00
71465;BME280;59274;49.874;9.154;2022-10-15T04:17:00;99570.94;;;13.92;100.00
71465;BME280;59274;49.874;9.154;2022-10-15T04:19:25;99575.25;;;13.89;100.00
71465;BME280;59274;49.874;9.154;2022-10-15T04:21:51;99577.19;;;13.89;100.00
71465;BME280;59274;49.874;9.154;2022-10-15T04:24:16;99570.56;;;13.90;100.00
71465;BME280;59274;49.874;9.154;2022-10-15T04:26:41;99575.19;;;13.93;100.00
71465;BME280;59274;49.874;9.154;2022-10-15T04:29:07;99588.81;;;13.93;100.00
71465;BME280;59274;49.874;9.154;2022-10-15T04:31:32;99590.81;;;13.92;100.00
71465;BME280;59274;49.874;9.154;2022-10-15T04:33:58;99592.03;;;13.88;100.00
71465;BME280;59274;49.874;9.154;2022-10-15T04:36:24;99601.28;;;13.94;100.00
71465;BME280;59274;49.874;9.154;2022-10-15T04:38:49;99604.50;;;13.89;100.00
71465;BME280;59274;49.874;9.154;2022-10-15T04:41:15;99600.63;;;13.86;100.00
71465;BME280;59274;49.874;9.154;2022-10-15T04:43:40;99601.75;;;13.89;100.00
71465;BME280;59274;49.874;9.154;2022-10-15T04:46:07;99607.28;;;13.85;100.00
71465;BME280;59274;49.874;9.154;2022-10-15T04:48:34;99597.53;;;13.84;100.00
71465;BME280;59274;49.874;9.154;2022-10-15T04:51:07;99598.66;;;13.87;100.00
71465;BME280;59274;49.874;9.154;2022-10-15T04:53:33;99600.22;;;13.88;100.00
71465;BME280;59274;49.874;9.154;2022-10-15T04:56:04;99609.66;;;13.80;100.00
71465;BME280;59274;49.874;9.154;2022-10-15T04:58:34;99608.41;;;13.88;100.00
71465;BME280;59274;49.874;9.154;2022-10-15T05:01:11;99609.88;;;13.96;100.00
71465;BME280;59274;49.874;9.154;2022-10-15T05:03:37;99607.94;;;13.93;100.00
71465;BME280;59274;49.874;9.154;2022-10-15T05:06:05;99613.81;;;13.91;100.00
71465;BME280;59274;49.874;9.154;2022-10-15T05:08:32;99615.88;;;13.84;100.00
71465;BME280;59274;49.874;9.154;2022-10-15T05:11:05;99621.69;;;13.86;100.00
71465;BME280;59274;49.874;9.154;2022-10-15T05:13:32;99622.09;;;13.84;100.00
71465;BME280;59274;49.874;9.154;2022-10-15T05:16:12;99615.91;;;13.80;100.00
71465;BME280;59274;49.874;9.154;2022-10-15T05:18:39;99623.69;;;13.82;100.00
71465;BME280;59274;49.874;9.154;2022-10-15T05:21:05;99622.53;;;13.79;100.00
71465;BME280;59274;49.874;9.154;2022-10-15T05:23:30;99626.09;;;13.76;100.00
71465;BME280;59274;49.874;9.154;2022-10-15T05:26:00;99635.78;;;13.81;100.00
71465;BME280;59274;49.874;9.154;2022-10-15T05:28:26;99632.69;;;13.79;100.00
71465;BME280;59274;49.874;9.154;2022-10-15T05:30:51;99638.19;;;13.75;100.00
71465;BME280;59274;49.874;9.154;2022-10-15T05:33:16;99635.88;;;13.73;100.00
71465;BME280;59274;49.874;9.154;2022-10-15T05:35:42;99637.03;;;13.76;100.00
71465;BME280;59274;49.874;9.154;2022-10-15T05:38:07;99633.50;;;13.76;100.00
71465;BME280;59274;49.874;9.154;2022-10-15T05:40:32;99639.75;;;13.76;100.00
71465;BME280;59274;49.874;9.154;2022-10-15T05:42:58;99645.94;;;13.80;100.00
71465;BME280;59274;49.874;9.154;2022-10-15T05:45:23;99656.06;;;13.80;100.00
71465;BME280;59274;49.874;9.154;2022-10-15T05:47:53;99653.34;;;13.80;100.00
71465;BME280;59274;49.874;9.154;2022-10-15T05:50:18;99656.81;;;13.84;100.00
71465;BME280;59274;49.874;9.154;2022-10-15T05:52:44;99656.84;;;13.80;100.00
71465;BME280;59274;49.874;9.154;2022-10-15T05:55:09;99658.81;;;13.80;100.00
71465;BME280;59274;49.874;9.154;2022-10-15T05:57:35;99656.41;;;13.85;100.00
71465;BME280;59274;49.874;9.154;2022-10-15T06:00:01;99655.28;;;13.79;100.00
71465;BME280;59274;49.874;9.154;2022-10-15T06:02:26;99661.53;;;13.80;100.00
71465;BME280;59274;49.874;9.154;2022-10-15T06:04:51;99662.31;;;13.80;100.00
71465;BME280;59274;49.874;9.154;2022-10-15T06:07:17;99667.00;;;13.80;100.00
71465;BME280;59274;49.874;9.154;2022-10-15T06:09:43;99679.06;;;13.82;100.00
71465;BME280;59274;49.874;9.154;2022-10-15T06:12:08;99672.38;;;13.87;100.00
71465;BME280;59274;49.874;9.154;2022-10-15T06:14:33;99680.16;;;13.88;100.00
71465;BME280;59274;49.874;9.154;2022-10-15T06:16:59;99684.84;;;13.88;100.00
71465;BME280;59274;49.874;9.154;2022-10-15T06:19:24;99688.41;;;13.85;100.00
71465;BME280;59274;49.874;9.154;2022-10-15T06:21:50;99680.16;;;13.88;100.00
71465;BME280;59274;49.874;9.154;2022-10-15T06:24:15;99692.63;;;13.89;100.00
71465;BME280;59274;49.874;9.154;2022-10-15T06:26:41;99692.56;;;13.93;100.00
71465;BME280;59274;49.874;9.154;2022-10-15T06:29:06;99694.13;;;13.94;100.00
71465;BME280;59274;49.874;9.154;2022-10-15T06:31:32;99698.31;;;14.02;100.00
71465;BME280;59274;49.874;9.154;2022-10-15T06:33:57;99708.13;;;13.99;100.00
71465;BME280;59274;49.874;9.154;2022-10-15T06:36:23;99724.44;;;14.03;100.00
71465;BME280;59274;49.874;9.154;2022-10-15T06:38:50;99718.19;;;14.06;100.00
71465;BME280;59274;49.874;9.154;2022-10-15T06:41:15;99725.09;;;14.14;100.00
71465;BME280;59274;49.874;9.154;2022-10-15T06:43:41;99728.84;;;14.27;100.00
71465;BME280;59274;49.874;9.154;2022-10-15T06:46:06;99740.44;;;14.38;100.00
71465;BME280;59274;49.874;9.154;2022-10-15T06:48:33;99739.19;;;14.43;100.00
71465;BME280;59274;49.874;9.154;2022-10-15T06:50:59;99740.31;;;14.49;100.00
71465;BME280;59274;49.874;9.154;2022-10-15T06:53:25;99736.66;;;14.59;100.00
71465;BME280;59274;49.874;9.154;2022-10-15T06:55:55;99739.34;;;14.63;100.00
71465;BME280;59274;49.874;9.154;2022-10-15T06:58:20;99736.94;;;14.65;100.00
71465;BME280;59274;49.874;9.154;2022-10-15T07:00:46;99744.72;;;14.70;100.00
71465;BME280;59274;49.874;9.154;2022-10-15T07:03:11;99746.66;;;14.69;100.00
71465;BME280;59274;49.874;9.154;2022-10-15T07:05:37;99747.78;;;14.72;100.00
71465;BME280;59274;49.874;9.154;2022-10-15T07:08:02;99749.41;;;14.69;100.00
71465;BME280;59274;49.874;9.154;2022-10-15T07:10:28;99751.69;;;14.71;100.00
71465;BME280;59274;49.874;9.154;2022-10-15T07:12:53;99752.91;;;14.70;100.00
71465;BME280;59274;49.874;9.154;2022-10-15T07:15:19;99757.22;;;14.67;100.00
71465;BME280;59274;49.874;9.154;2022-10-15T07:17:52;99751.00;;;14.67;100.00
71465;BME280;59274;49.874;9.154;2022-10-15T07:20:21;99751.09;;;14.60;100.00
71465;BME280;59274;49.874;9.154;2022-10-15T07:22:47;99758.81;;;14.65;100.00
71465;BME280;59274;49.874;9.154;2022-10-15T07:25:13;99750.28;;;14.63;100.00
71465;BME280;59274;49.874;9.154;2022-10-15T07:27:39;99754.91;;;14.66;100.00
71465;BME280;59274;49.874;9.154;2022-10-15T07:30:05;99762.22;;;14.72;100.00
71465;BME280;59274;49.874;9.154;2022-10-15T07:32:31;99758.38;;;14.70;100.00
71465;BME280;59274;49.874;9.154;2022-10-15T07:34:57;99772.75;;;14.74;100.00
71465;BME280;59274;49.874;9.154;2022-10-15T07:37:22;99772.72;;;14.77;100.00
71465;BME280;59274;49.874;9.154;2022-10-15T07:39:48;99783.13;;;14.86;100.00
71465;BME280;59274;49.874;9.154;2022-10-15T07:42:14;99781.06;;;14.94;100.00
71465;BME280;59274;49.874;9.154;2022-10-15T07:44:39;99775.88;;;15.03;100.00
71465;BME280;59274;49.874;9.154;2022-10-15T07:47:06;99785.81;;;15.16;100.00
71465;BME280;59274;49.874;9.154;2022-10-15T07:49:31;99789.22;;;15.24;100.00
71465;BME280;59274;49.874;9.154;2022-10-15T07:51:57;99790.72;;;15.28;100.00
71465;BME280;59274;49.874;9.154;2022-10-15T07:54:22;99797.69;;;15.33;100.00
71465;BME280;59274;49.874;9.154;2022-10-15T07:56:48;99798.47;;;15.34;100.00
71465;BME280;59274;49.874;9.154;2022-10-15T07:59:13;99809.34;;;15.37;100.00
71465;BME280;59274;49.874;9.154;2022-10-15T08:01:39;99807.75;;;15.40;100.00
71465;BME280;59274;49.874;9.154;2022-10-15T08:04:04;99793.94;;;15.47;100.00
71465;BME280;59274;49.874;9.154;2022-10-15T08:06:31;99800.41;;;15.60;100.00
71465;BME280;59274;49.874;9.154;2022-10-15T08:08:57;99799.47;;;15.70;100.00
71465;BME280;59274;49.874;9.154;2022-10-15T08:11:22;99791.81;;;15.81;100.00
71465;BME280;59274;49.874;9.154;2022-10-15T08:13:48;99798.31;;;15.91;100.00
71465;BME280;59274;49.874;9.154;2022-10-15T08:16:14;99802.16;;;15.93;100.00
71465;BME280;59274;49.874;9.154;2022-10-15T08:18:40;99796.28;;;15.95;100.00
71465;BME280;59274;49.874;9.154;2022-10-15T08:21:06;99794.66;;;15.97;100.00
71465;BME280;59274;49.874;9.154;2022-10-15T08:23:33;99805.41;;;16.08;100.00
71465;BME280;59274;49.874;9.154;2022-10-15T08:25:59;99812.44;;;16.09;100.00
71465;BME280;59274;49.874;9.154;2022-10-15T08:28:26;99822.00;;;16.21;100.00
71465;BME280;59274;49.874;9.154;2022-10-15T08:30:51;99817.50;;;16.11;100.00
71465;BME280;59274;49.874;9.154;2022-10-15T08:33:16;99814.91;;;16.23;100.00
71465;BME280;59274;49.874;9.154;2022-10-15T08:35:42;99821.72;;;16.35;100.00
71465;BME280;59274;49.874;9.154;2022-10-15T08:38:11;99818.31;;;16.31;100.00
71465;BME280;59274;49.874;9.154;2022-10-15T08:40:37;99823.38;;;16.32;100.00
71465;BME280;59274;49.874;9.154;2022-10-15T08:43:03;99826.59;;;16.47;100.00
71465;BME280;59274;49.874;9.154;2022-10-15T08:45:33;99823.59;;;16.61;100.00
71465;BME280;59274;49.874;9.154;2022-10-15T08:48:07;99831.97;;;16.74;100.00
71465;BME280;59274;49.874;9.154;2022-10-15T08:50:44;99824.78;;;16.80;100.00
71465;BME280;59274;49.874;9.154;2022-10-15T08:53:21;99827.63;;;16.93;100.00
71465;BME280;59274;49.874;9.154;2022-10-15T08:55:50;99827.38;;;16.87;100.00
71465;BME280;59274;49.874;9.154;2022-10-15T09:00:52;99826.38;;;16.77;100.00
71465;BME280;59274;49.874;9.154;2022-10-15T09:03:38;99834.28;;;16.75;100.00
71465;BME280;59274;49.874;9.154;2022-10-15T09:06:12;99835.47;;;16.74;100.00
71465;BME280;59274;49.874;9.154;2022-10-15T09:11:56;99834.31;;;16.92;100.00
71465;BME280;59274;49.874;9.154;2022-10-15T09:14:35;99833.69;;;17.04;100.00
71465;BME280;59274;49.874;9.154;2022-10-15T09:19:41;99833.19;;;17.25;100.00
71465;BME280;59274;49.874;9.154;2022-10-15T09:22:11;99829.25;;;17.26;100.00
71465;BME280;59274;49.874;9.154;2022-10-15T09:24:39;99834.22;;;17.31;100.00
71465;BME280;59274;49.874;9.154;2022-10-15T09:27:11;99837.59;;;17.39;100.00
71465;BME280;59274;49.874;9.154;2022-10-15T09:29:41;99837.75;;;17.32;100.00
71465;BME280;59274;49.874;9.154;2022-10-15T09:34:46;99849.75;;;17.38;98.24
71465;BME280;59274;49.874;9.154;2022-10-15T09:37:35;99845.31;;;17.44;100.00
71465;BME280;59274;49.874;9.154;2022-10-15T09:40:26;99839.22;;;17.52;100.00
71465;BME280;59274;49.874;9.154;2022-10-15T09:42:56;99840.50;;;17.48;100.00
71465;BME280;59274;49.874;9.154;2022-10-15T09:45:22;99847.50;;;17.69;100.00
71465;BME280;59274;49.874;9.154;2022-10-15T09:47:49;99846.97;;;17.74;99.35
71465;BME280;59274;49.874;9.154;2022-10-15T09:50:15;99850.66;;;17.67;100.00
71465;BME280;59274;49.874;9.154;2022-10-15T09:55:41;99854.34;;;17.77;92.32
71465;BME280;59274;49.874;9.154;2022-10-15T09:58:14;99857.25;;;17.70;93.21
71465;BME280;59274;49.874;9.154;2022-10-15T10:00:58;99858.72;;;17.74;95.15
71465;BME280;59274;49.874;9.154;2022-10-15T10:03:27;99860.31;;;17.55;90.81
71465;BME280;59274;49.874;9.154;2022-10-15T10:06:08;99865.66;;;17.46;93.69
71465;BME280;59274;49.874;9.154;2022-10-15T10:08:53;99872.72;;;17.64;93.29
71465;BME280;59274;49.874;9.154;2022-10-15T10:11:22;99867.34;;;17.56;92.05
71465;BME280;59274;49.874;9.154;2022-10-15T10:16:15;99869.44;;;17.52;94.60
71465;BME280;59274;49.874;9.154;2022-10-15T10:18:41;99874.22;;;17.48;94.48
71465;BME280;59274;49.874;9.154;2022-10-15T10:21:27;99872.28;;;17.65;93.79
71465;BME280;59274;49.874;9.154;2022-10-15T10:23:53;99879.69;;;17.48;92.37
71465;BME280;59274;49.874;9.154;2022-10-15T10:26:19;99880.00;;;17.54;95.12
71465;BME280;59274;49.874;9.154;2022-10-15T10:28:52;99886.50;;;17.60;96.56
71465;BME280;59274;49.874;9.154;2022-10-15T10:31:31;99874.66;;;17.47;95.36
71465;BME280;59274;49.874;9.154;2022-10-15T10:34:01;99880.66;;;17.58;97.00
71465;BME280;59274;49.874;9.154;2022-10-15T10:36:30;99876.06;;;17.71;96.96
71465;BME280;59274;49.874;9.154;2022-10-15T10:44:34;99879.94;;;17.74;93.23
71465;BME280;59274;49.874;9.154;2022-10-15T10:47:18;99878.13;;;17.67;91.83
71465;BME280;59274;49.874;9.154;2022-10-15T10:49:51;99874.97;;;17.69;92.55
71465;BME280;59274;49.874;9.154;2022-10-15T10:54:59;99878.38;;;17.73;90.53
71465;BME280;59274;49.874;9.154;2022-10-15T10:57:50;99876.66;;;17.79;90.96
71465;BME280;59274;49.874;9.154;2022-10-15T11:00:38;99883.28;;;17.65;93.72
71465;BME280;59274;49.874;9.154;2022-10-15T11:03:05;99879.94;;;17.74;93.52
71465;BME280;59274;49.874;9.154;2022-10-15T11:05:39;99875.47;;;17.80;92.29
71465;BME280;59274;49.874;9.154;2022-10-15T11:30:40;99880.75;;;17.38;95.21
71465;BME280;59274;49.874;9.154;2022-10-15T11:38:36;99874.53;;;17.34;96.86
71465;BME280;59274;49.874;9.154;2022-10-15T11:44:37;99865.25;;;17.96;95.85
71465;BME280;59274;49.874;9.154;2022-10-15T12:01:15;99853.91;;;17.94;97.01
71465;BME280;59274;49.874;9.154;2022-10-15T12:04:00;99850.63;;;17.99;98.80
71465;BME280;59274;49.874;9.154;2022-10-15T12:06:30;99845.66;;;18.11;99.20
71465;BME280;59274;49.874;9.154;2022-10-15T12:08:59;99848.91;;;18.06;98.72
71465;BME280;59274;49.874;9.154;2022-10-15T12:11:43;99846.91;;;18.22;99.24
71465;BME280;59274;49.874;9.154;2022-10-15T12:14:30;99842.41;;;18.28;100.00
71465;BME280;59274;49.874;9.154;2022-10-15T12:19:44;99839.19;;;18.46;98.06
71465;BME280;59274;49.874;9.154;2022-10-15T12:22:12;99838.38;;;18.33;99.09
71465;BME280;59274;49.874;9.154;2022-10-15T12:27:25;99835.34;;;18.27;93.65
71465;BME280;59274;49.874;9.154;2022-10-15T12:32:35;99840.66;;;18.06;93.63
71465;BME280;59274;49.874;9.154;2022-10-15T12:35:04;99828.75;;;17.80;91.39
71465;BME280;59274;49.874;9.154;2022-10-15T12:37:32;99842.16;;;17.78;95.35
71465;BME280;59274;49.874;9.154;2022-10-15T12:40:21;99833.59;;;17.76;90.85
71465;BME280;59274;49.874;9.154;2022-10-15T12:43:15;99829.13;;;17.82;94.67
71465;BME280;59274;49.874;9.154;2022-10-15T12:45:56;99828.47;;;17.90;90.36
71465;BME280;59274;49.874;9.154;2022-10-15T12:49:04;99829.59;;;17.93;89.90
71465;BME280;59274;49.874;9.154;2022-10-15T12:53:50;99818.19;;;17.94;90.53
71465;BME280;59274;49.874;9.154;2022-10-15T13:06:14;99806.50;;;17.90;92.48
71465;BME280;59274;49.874;9.154;2022-10-15T13:08:45;99806.59;;;17.87;92.40
71465;BME280;59274;49.874;9.154;2022-10-15T13:13:52;99803.28;;;17.47;94.39
71465;BME280;59274;49.874;9.154;2022-10-15T13:16:20;99812.47;;;17.40;95.73
71465;BME280;59274;49.874;9.154;2022-10-15T13:18:49;99810.63;;;17.34;95.39
71465;BME280;59274;49.874;9.154;2022-10-15T13:21:16;99820.59;;;17.44;96.53
71465;BME280;59274;49.874;9.154;2022-10-15T13:23:46;99810.38;;;17.28;95.78
71465;BME280;59274;49.874;9.154;2022-10-15T13:26:20;99811.91;;;17.29;96.44
71465;BME280;59274;49.874;9.154;2022-10-15T13:28:48;99812.47;;;17.40;95.43
71465;BME280;59274;49.874;9.154;2022-10-15T13:31:21;99815.78;;;17.48;96.83
71465;BME280;59274;49.874;9.154;2022-10-15T13:33:51;99805.06;;;17.53;95.35
71465;BME280;59274;49.874;9.154;2022-10-15T13:36:26;99810.03;;;17.58;96.41
71465;BME280;59274;49.874;9.154;2022-10-15T13:39:01;99815.19;;;17.56;95.77
71465;BME280;59274;49.874;9.154;2022-10-15T13:41:33;99809.09;;;17.49;97.26
71465;BME280;59274;49.874;9.154;2022-10-15T13:44:00;99807.81;;;17.53;96.77
71465;BME280;59274;49.874;9.154;2022-10-15T13:46:30;99818.88;;;17.50;97.78
71465;BME280;59274;49.874;9.154;2022-10-15T13:48:57;99813.19;;;17.41;98.05
71465;BME280;59274;49.874;9.154;2022-10-15T13:51:28;99813.38;;;17.34;98.25
71465;BME280;59274;49.874;9.154;2022-10-15T13:53:56;99805.66;;;17.29;98.79
71465;BME280;59274;49.874;9.154;2022-10-15T13:56:28;99811.50;;;17.31;97.70
71465;BME280;59274;49.874;9.154;2022-10-15T13:58:55;99804.28;;;17.37;98.22
71465;BME280;59274;49.874;9.154;2022-10-15T14:01:23;99809.53;;;17.31;97.61
71465;BME280;59274;49.874;9.154;2022-10-15T14:03:55;99804.88;;;17.28;97.39
71465;BME280;59274;49.874;9.154;2022-10-15T14:08:48;99802.97;;;17.09;98.57
71465;BME280;59274;49.874;9.154;2022-10-15T14:11:15;99817.47;;;17.09;98.66
71465;BME280;59274;49.874;9.154;2022-10-15T14:13:49;99826.22;;;17.04;99.14
71465;BME280;59274;49.874;9.154;2022-10-15T14:21:34;99823.84;;;16.87;98.96
71465;BME280;59274;49.874;9.154;2022-10-15T14:26:32;99836.38;;;16.88;100.00
71465;BME280;59274;49.874;9.154;2022-10-15T14:28:58;99837.91;;;16.89;100.00
71465;BME280;59274;49.874;9.154;2022-10-15T14:31:36;99840.47;;;16.79;100.00
71465;BME280;59274;49.874;9.154;2022-10-15T14:34:02;99834.00;;;16.70;100.00
71465;BME280;59274;49.874;9.154;2022-10-15T14:36:40;99831.44;;;16.59;100.00
71465;BME280;59274;49.874;9.154;2022-10-15T14:39:31;99833.78;;;16.41;100.00
71465;BME280;59274;49.874;9.154;2022-10-15T14:44:23;99849.78;;;16.23;100.00
71465;BME280;59274;49.874;9.154;2022-10-15T14:46:51;99847.69;;;16.07;100.00
71465;BME280;59274;49.874;9.154;2022-10-15T14:49:25;99851.88;;;16.15;100.00
71465;BME280;59274;49.874;9.154;2022-10-15T14:51:54;99847.00;;;16.03;100.00
71465;BME280;59274;49.874;9.154;2022-10-15T14:54:25;99843.13;;;16.00;100.00
71465;BME280;59274;49.874;9.154;2022-10-15T14:56:54;99845.88;;;16.00;100.00
71465;BME280;59274;49.874;9.154;2022-10-15T14:59:27;99847.63;;;15.91;100.00
71465;BME280;59274;49.874;9.154;2022-10-15T15:01:56;99846.84;;;15.90;100.00
71465;BME280;59274;49.874;9.154;2022-10-15T15:04:43;99845.34;;;15.86;100.00
71465;BME280;59274;49.874;9.154;2022-10-15T15:07:18;99844.44;;;15.92;100.00
71465;BME280;59274;49.874;9.154;2022-10-15T15:09:46;99847.63;;;15.91;100.00
71465;BME280;59274;49.874;9.154;2022-10-15T15:12:21;99844.44;;;15.92;100.00
71465;BME280;59274;49.874;9.154;2022-10-15T15:14:47;99846.41;;;15.92;100.00
71465;BME280;59274;49.874;9.154;2022-10-15T15:17:20;99843.75;;;15.88;100.00
71465;BME280;59274;49.874;9.154;2022-10-15T15:19:48;99840.50;;;15.93;100.00